createdAt,value
2023-05-04T00:00:44.457Z,95240.00
2023-05-04T00:01:44.576Z,95242.00
2023-05-04T00:02:44.673Z,95240.00
2023-05-04T00:03:44.719Z,95238.00
2023-05-04T00:04:44.632Z,95238.00
2023-05-04T00:05:44.650Z,95238.00
2023-05-04T00:06:44.724Z,95240.00
2023-05-04T00:07:44.794Z,95240.00
2023-05-04T00:08:44.852Z,95240.00
2023-05-04T00:09:44.791Z,95238.00
2023-05-04T00:10:44.793Z,95238.00
2023-05-04T00:11:44.837Z,95236.00
2023-05-04T00:12:44.902Z,95236.00
2023-05-04T00:13:44.884Z,95236.00
2023-05-04T00:14:44.864Z,95233.00
2023-05-04T00:15:44.939Z,95233.00
2023-05-04T00:16:44.923Z,95235.00
2023-05-04T00:17:45.020Z,95233.00
2023-05-04T00:18:44.950Z,95235.00
2023-05-04T00:19:44.988Z,95233.00
2023-05-04T00:20:45.044Z,95236.00
2023-05-04T00:21:45.044Z,95233.00
2023-05-04T00:22:45.071Z,95235.00
2023-05-04T00:23:45.140Z,95233.00
2023-05-04T00:24:45.229Z,95233.00
2023-05-04T00:25:45.234Z,95236.00
2023-05-04T00:26:45.298Z,95233.00
2023-05-04T00:27:45.315Z,95235.00
2023-05-04T00:28:45.327Z,95235.00
2023-05-04T00:29:45.374Z,95233.00
2023-05-04T00:30:45.425Z,95233.00
2023-05-04T00:31:45.505Z,95235.00
2023-05-04T00:32:45.533Z,95235.00
2023-05-04T00:33:45.457Z,95235.00
2023-05-04T00:34:45.553Z,95233.00
2023-05-04T00:35:45.516Z,95235.00
2023-05-04T00:36:45.558Z,95233.00
2023-05-04T00:37:46.240Z,95235.00
2023-05-04T00:38:45.492Z,95235.00
2023-05-04T00:39:45.551Z,95235.00
2023-05-04T00:40:45.612Z,95236.00
2023-05-04T00:41:46.685Z,95231.00
2023-05-04T00:42:45.671Z,95235.00
2023-05-04T00:43:45.756Z,95236.00
2023-05-04T00:44:45.737Z,95238.00
2023-05-04T00:45:45.799Z,95240.00
2023-05-04T00:46:45.793Z,95238.00
2023-05-04T00:47:45.833Z,95238.00
2023-05-04T00:48:45.875Z,95233.00
2023-05-04T00:49:45.938Z,95235.00
2023-05-04T00:50:45.922Z,95236.00
2023-05-04T00:51:45.821Z,95238.00
2023-05-04T00:52:45.848Z,95240.00
2023-05-04T00:53:45.853Z,95235.00
2023-05-04T00:54:46.664Z,95236.00
2023-05-04T00:55:45.858Z,95235.00
2023-05-04T00:56:45.899Z,95236.00
2023-05-04T00:57:46.192Z,95233.00
2023-05-04T00:58:45.901Z,95233.00
2023-05-04T00:59:45.925Z,95233.00
2023-05-04T01:00:45.974Z,95231.00
2023-05-04T01:01:45.967Z,95233.00
2023-05-04T01:02:46.061Z,95233.00
2023-05-04T01:03:46.097Z,95231.00
2023-05-04T01:04:46.122Z,95229.00
2023-05-04T01:05:46.044Z,95233.00
2023-05-04T01:06:46.124Z,95233.00
2023-05-04T01:07:46.124Z,95231.00
2023-05-04T01:08:46.096Z,95231.00
2023-05-04T01:09:46.120Z,95235.00
2023-05-04T01:10:46.088Z,95233.00
2023-05-04T01:11:46.086Z,95233.00
2023-05-04T01:12:46.169Z,95235.00
2023-05-04T01:13:46.126Z,95235.00
2023-05-04T01:14:46.178Z,95233.00
2023-05-04T01:15:46.221Z,95231.00
2023-05-04T01:16:46.295Z,95231.00
2023-05-04T01:17:46.417Z,95233.00
2023-05-04T01:18:46.339Z,95229.00
2023-05-04T01:19:46.340Z,95231.00
2023-05-04T01:20:46.383Z,95233.00
2023-05-04T01:21:46.392Z,95236.00
2023-05-04T01:22:46.452Z,95235.00
2023-05-04T01:23:46.454Z,95235.00
2023-05-04T01:24:46.450Z,95233.00
2023-05-04T01:25:46.460Z,95236.00
2023-05-04T01:26:46.522Z,95238.00
2023-05-04T01:27:46.609Z,95236.00
2023-05-04T01:28:46.637Z,95236.00
2023-05-04T01:29:46.647Z,95235.00
2023-05-04T01:30:46.734Z,95235.00
2023-05-04T01:31:46.743Z,95236.00
2023-05-04T01:32:46.783Z,95236.00
2023-05-04T01:33:46.766Z,95235.00
2023-05-04T01:34:46.773Z,95238.00
2023-05-04T01:35:46.846Z,95238.00
2023-05-04T01:36:47.140Z,95236.00
2023-05-04T01:37:46.879Z,95240.00
2023-05-04T01:38:46.938Z,95238.00
2023-05-04T01:39:46.996Z,95240.00
2023-05-04T01:40:46.998Z,95236.00
2023-05-04T01:41:47.018Z,95240.00
2023-05-04T01:42:47.088Z,95238.00
2023-05-04T01:43:47.142Z,95236.00
2023-05-04T01:44:47.222Z,95236.00
2023-05-04T01:45:47.286Z,95238.00
2023-05-04T01:46:47.298Z,95238.00
2023-05-04T01:47:47.416Z,95238.00
2023-05-04T01:48:47.352Z,95236.00
2023-05-04T01:49:47.441Z,95238.00
2023-05-04T01:50:47.444Z,95238.00
2023-05-04T01:51:47.442Z,95236.00
2023-05-04T01:52:47.476Z,95236.00
2023-05-04T01:53:47.480Z,95238.00
2023-05-04T01:54:47.553Z,95240.00
2023-05-04T01:55:47.588Z,95240.00
2023-05-04T01:56:47.605Z,95242.00
2023-05-04T01:57:47.758Z,95236.00
2023-05-04T01:58:47.649Z,95240.00
2023-05-04T01:59:47.706Z,95240.00
2023-05-04T02:00:47.715Z,95242.00
2023-05-04T02:01:47.878Z,95242.00
2023-05-04T02:02:47.891Z,95242.00
2023-05-04T02:03:47.924Z,95240.00
2023-05-04T02:04:47.908Z,95242.00
2023-05-04T02:05:47.930Z,95244.00
2023-05-04T02:06:47.960Z,95242.00
2023-05-04T02:07:47.974Z,95242.00
2023-05-04T02:08:48.013Z,95242.00
2023-05-04T02:09:47.975Z,95242.00
2023-05-04T02:10:48.029Z,95242.00
2023-05-04T02:11:48.119Z,95242.00
2023-05-04T02:12:48.136Z,95242.00
2023-05-04T02:13:48.119Z,95244.00
2023-05-04T02:14:48.159Z,95242.00
2023-05-04T02:15:48.224Z,95242.00
2023-05-04T02:16:48.223Z,95238.00
2023-05-04T02:17:48.308Z,95240.00
2023-05-04T02:18:48.361Z,95240.00
2023-05-04T02:19:48.349Z,95242.00
2023-05-04T02:20:48.434Z,95242.00
2023-05-04T02:21:48.465Z,95244.00
2023-05-04T02:22:48.463Z,95244.00
2023-05-04T02:23:48.552Z,95242.00
2023-05-04T02:24:48.580Z,95244.00
2023-05-04T02:25:48.627Z,95242.00
2023-05-04T02:26:48.717Z,95248.00
2023-05-04T02:27:48.816Z,95242.00
2023-05-04T02:28:48.847Z,95246.00
2023-05-04T02:29:48.871Z,95246.00
2023-05-04T02:30:48.890Z,95244.00
2023-05-04T02:31:49.052Z,95246.00
2023-05-04T02:32:49.111Z,95246.00
2023-05-04T02:33:49.066Z,95246.00
2023-05-04T02:34:49.097Z,95246.00
2023-05-04T02:35:49.114Z,95248.00
2023-05-04T02:36:49.131Z,95246.00
2023-05-04T02:37:49.126Z,95244.00
2023-05-04T02:38:49.138Z,95248.00
2023-05-04T02:39:49.207Z,95246.00
2023-05-04T02:40:49.225Z,95246.00
2023-05-04T02:41:49.301Z,95246.00
2023-05-04T02:42:49.316Z,95248.00
2023-05-04T02:43:49.322Z,95248.00
2023-05-04T02:44:49.338Z,95246.00
2023-05-04T02:45:49.423Z,95246.00
2023-05-04T02:46:49.498Z,95246.00
2023-05-04T02:47:49.528Z,95248.00
2023-05-04T02:48:49.462Z,95248.00
2023-05-04T02:49:49.495Z,95248.00
2023-05-04T02:50:49.577Z,95248.00
2023-05-04T02:51:49.644Z,95248.00
2023-05-04T02:52:49.679Z,95248.00
2023-05-04T02:53:49.712Z,95248.00
2023-05-04T02:54:52.924Z,95248.00
2023-05-04T02:55:49.862Z,95246.00
2023-05-04T02:56:50.234Z,95248.00
2023-05-04T02:57:49.757Z,95246.00
2023-05-04T02:58:49.731Z,95246.00
2023-05-04T02:59:49.748Z,95246.00
2023-05-04T03:00:49.735Z,95244.00
2023-05-04T03:01:49.799Z,95246.00
2023-05-04T03:02:49.779Z,95244.00
2023-05-04T03:03:49.815Z,95244.00
2023-05-04T03:04:49.764Z,95244.00
2023-05-04T03:05:49.705Z,95242.00
2023-05-04T03:06:49.705Z,95246.00
2023-05-04T03:07:49.674Z,95246.00
2023-05-04T03:08:49.713Z,95246.00
2023-05-04T03:09:49.718Z,95246.00
2023-05-04T03:10:49.681Z,95248.00
2023-05-04T03:11:49.714Z,95250.00
2023-05-04T03:12:49.744Z,95250.00
2023-05-04T03:13:49.757Z,95252.00
2023-05-04T03:14:49.662Z,95254.00
2023-05-04T03:15:49.688Z,95252.00
2023-05-04T03:16:49.769Z,95256.00
2023-05-04T03:17:49.710Z,95256.00
2023-05-04T03:18:49.642Z,95256.00
2023-05-04T03:19:49.603Z,95256.00
2023-05-04T03:20:49.629Z,95256.00
2023-05-04T03:21:49.574Z,95258.00
2023-05-04T03:22:49.593Z,95256.00
2023-05-04T03:23:49.568Z,95260.00
2023-05-04T03:24:49.583Z,95258.00
2023-05-04T03:25:49.648Z,95258.00
2023-05-04T03:26:49.615Z,95260.00
2023-05-04T03:27:49.638Z,95260.00
2023-05-04T03:28:49.601Z,95260.00
2023-05-04T03:29:49.536Z,95264.00
2023-05-04T03:30:49.588Z,95264.00
2023-05-04T03:31:49.683Z,95264.00
2023-05-04T03:32:49.558Z,95262.00
2023-05-04T03:33:49.495Z,95264.00
2023-05-04T03:34:49.508Z,95262.00
2023-05-04T03:35:49.597Z,95266.00
2023-05-04T03:36:49.543Z,95262.00
2023-05-04T03:37:49.480Z,95262.00
2023-05-04T03:38:49.484Z,95264.00
2023-05-04T03:39:49.449Z,95264.00
2023-05-04T03:40:49.478Z,95264.00
2023-05-04T03:41:49.442Z,95264.00
2023-05-04T03:42:49.457Z,95262.00
2023-05-04T03:43:49.419Z,95266.00
2023-05-04T03:44:49.444Z,95264.00
2023-05-04T03:45:49.502Z,95266.00
2023-05-04T03:46:49.467Z,95266.00
2023-05-04T03:47:49.471Z,95264.00
2023-05-04T03:48:49.400Z,95264.00
2023-05-04T03:49:49.390Z,95268.00
2023-05-04T03:50:49.450Z,95266.00
2023-05-04T03:51:49.508Z,95264.00
2023-05-04T03:52:49.533Z,95264.00
2023-05-04T03:53:49.563Z,95260.00
2023-05-04T03:54:49.624Z,95264.00
2023-05-04T03:55:49.645Z,95260.00
2023-05-04T03:56:49.681Z,95262.00
2023-05-04T03:57:49.696Z,95260.00
2023-05-04T03:58:49.753Z,95258.00
2023-05-04T03:59:49.794Z,95262.00
2023-05-04T04:00:49.801Z,95262.00
2023-05-04T04:01:49.835Z,95264.00
2023-05-04T04:02:49.871Z,95268.00
2023-05-04T04:03:49.901Z,95266.00
2023-05-04T04:04:49.865Z,95264.00
2023-05-04T04:05:49.878Z,95264.00
2023-05-04T04:06:49.954Z,95266.00
2023-05-04T04:07:50.034Z,95266.00
2023-05-04T04:08:50.037Z,95266.00
2023-05-04T04:09:50.076Z,95266.00
2023-05-04T04:10:50.019Z,95268.00
2023-05-04T04:11:50.041Z,95268.00
2023-05-04T04:12:50.072Z,95266.00
2023-05-04T04:13:50.032Z,95268.00
2023-05-04T04:14:50.052Z,95270.00
2023-05-04T04:15:50.087Z,95270.00
2023-05-04T04:16:50.083Z,95270.00
2023-05-04T04:17:50.161Z,95270.00
2023-05-04T04:18:50.126Z,95268.00
2023-05-04T04:19:50.141Z,95268.00
2023-05-04T04:20:50.255Z,95270.00
2023-05-04T04:21:50.218Z,95272.00
2023-05-04T04:22:50.302Z,95272.00
2023-05-04T04:23:50.318Z,95268.00
2023-05-04T04:24:50.337Z,95268.00
2023-05-04T04:25:50.354Z,95270.00
2023-05-04T04:26:50.427Z,95272.00
2023-05-04T04:27:50.463Z,95272.00
2023-05-04T04:28:50.582Z,95272.00
2023-05-04T04:29:50.521Z,95270.00
2023-05-04T04:30:50.659Z,95268.00
2023-05-04T04:31:50.647Z,95272.00
2023-05-04T04:32:50.657Z,95270.00
2023-05-04T04:33:50.598Z,95270.00
2023-05-04T04:34:50.634Z,95266.00
2023-05-04T04:35:50.766Z,95266.00
2023-05-04T04:36:50.713Z,95266.00
2023-05-04T04:37:50.771Z,95268.00
2023-05-04T04:38:50.794Z,95268.00
2023-05-04T04:39:50.823Z,95264.00
2023-05-04T04:40:50.893Z,95268.00
2023-05-04T04:41:50.945Z,95268.00
2023-05-04T04:42:51.017Z,95270.00
2023-05-04T04:43:51.042Z,95270.00
2023-05-04T04:44:51.128Z,95270.00
2023-05-04T04:45:51.125Z,95268.00
2023-05-04T04:46:51.224Z,95268.00
2023-05-04T04:47:51.329Z,95264.00
2023-05-04T04:48:51.344Z,95266.00
2023-05-04T04:49:51.313Z,95268.00
2023-05-04T04:50:51.379Z,95270.00
2023-05-04T04:51:51.445Z,95268.00
2023-05-04T04:52:51.494Z,95270.00
2023-05-04T04:53:51.533Z,95270.00
2023-05-04T04:54:51.607Z,95270.00
2023-05-04T04:55:51.598Z,95270.00
2023-05-04T04:56:51.757Z,95270.00
2023-05-04T04:57:51.656Z,95272.00
2023-05-04T04:58:51.675Z,95276.00
2023-05-04T04:59:51.689Z,95276.00
2023-05-04T05:00:51.760Z,95276.00
2023-05-04T05:01:51.796Z,95278.00
2023-05-04T05:02:51.859Z,95274.00
2023-05-04T05:03:51.870Z,95274.00
2023-05-04T05:04:52.022Z,95274.00
2023-05-04T05:05:51.969Z,95274.00
2023-05-04T05:06:51.980Z,95272.00
2023-05-04T05:07:52.046Z,95274.00
2023-05-04T05:08:52.116Z,95278.00
2023-05-04T05:09:52.168Z,95276.00
2023-05-04T05:10:52.160Z,95278.00
2023-05-04T05:11:52.229Z,95276.00
2023-05-04T05:12:52.327Z,95282.00
2023-05-04T05:13:52.279Z,95278.00
2023-05-04T05:14:52.330Z,95276.00
2023-05-04T05:15:52.366Z,95278.00
2023-05-04T05:16:52.455Z,95280.00
2023-05-04T05:17:52.499Z,95280.00
2023-05-04T05:18:52.509Z,95280.00
2023-05-04T05:19:52.566Z,95278.00
2023-05-04T05:20:52.629Z,95280.00
2023-05-04T05:21:52.780Z,95280.00
2023-05-04T05:22:52.745Z,95278.00
2023-05-04T05:23:53.677Z,95282.00
2023-05-04T05:24:52.792Z,95276.00
2023-05-04T05:25:52.717Z,95278.00
2023-05-04T05:26:53.749Z,95274.00
2023-05-04T05:27:52.793Z,95276.00
2023-05-04T05:28:52.855Z,95276.00
2023-05-04T05:29:53.069Z,95274.00
2023-05-04T05:30:52.966Z,95274.00
2023-05-04T05:31:52.870Z,95276.00
2023-05-04T05:32:52.940Z,95272.00
2023-05-04T05:33:52.911Z,95270.00
2023-05-04T05:34:52.973Z,95266.00
2023-05-04T05:35:52.988Z,95270.00
2023-05-04T05:36:53.032Z,95270.00
2023-05-04T05:37:56.196Z,95268.00
2023-05-04T05:38:53.737Z,95272.00
2023-05-04T05:39:53.044Z,95274.00
2023-05-04T05:40:53.006Z,95270.00
2023-05-04T05:41:53.064Z,95270.00
2023-05-04T05:42:54.259Z,95274.00
2023-05-04T05:43:53.036Z,95274.00
2023-05-04T05:44:53.002Z,95270.00
2023-05-04T05:45:52.987Z,95270.00
2023-05-04T05:46:53.123Z,95270.00
2023-05-04T05:47:53.339Z,95274.00
2023-05-04T05:48:52.976Z,95272.00
2023-05-04T05:49:53.477Z,95274.00
2023-05-04T05:50:52.994Z,95274.00
2023-05-04T05:51:52.955Z,95276.00
2023-05-04T05:52:52.940Z,95274.00
2023-05-04T05:53:52.915Z,95278.00
2023-05-04T05:54:52.936Z,95274.00
2023-05-04T05:55:53.291Z,95272.00
2023-05-04T05:56:52.901Z,95268.00
2023-05-04T05:57:53.290Z,95270.00
2023-05-04T05:58:52.882Z,95270.00
2023-05-04T05:59:52.948Z,95272.00
2023-05-04T06:00:52.884Z,95268.00
2023-05-04T06:01:52.918Z,95272.00
2023-05-04T06:02:52.966Z,95268.00
2023-05-04T06:03:53.135Z,95268.00
2023-05-04T06:04:52.957Z,95266.00
2023-05-04T06:05:52.831Z,95268.00
2023-05-04T06:06:52.956Z,95266.00
2023-05-04T06:07:53.903Z,95266.00
2023-05-04T06:08:52.828Z,95264.00
2023-05-04T06:09:52.914Z,95264.00
2023-05-04T06:10:52.848Z,95262.00
2023-05-04T06:11:55.322Z,95264.00
2023-05-04T06:12:52.864Z,95268.00
2023-05-04T06:13:52.871Z,95266.00
2023-05-04T06:14:52.845Z,95264.00
2023-05-04T06:15:52.937Z,95262.00
2023-05-04T06:16:52.820Z,95262.00
2023-05-04T06:17:52.858Z,95264.00
2023-05-04T06:18:52.908Z,95266.00
2023-05-04T06:19:52.789Z,95264.00
2023-05-04T06:20:52.829Z,95260.00
2023-05-04T06:21:52.780Z,95260.00
2023-05-04T06:22:53.810Z,95260.00
2023-05-04T06:23:52.759Z,95258.00
2023-05-04T06:24:53.996Z,95258.00
2023-05-04T06:25:52.779Z,95258.00
2023-05-04T06:26:52.837Z,95256.00
2023-05-04T06:27:52.732Z,95254.00
2023-05-04T06:28:52.722Z,95250.00
2023-05-04T06:29:52.761Z,95252.00
2023-05-04T06:30:52.706Z,95252.00
2023-05-04T06:31:52.775Z,95252.00
2023-05-04T06:32:54.385Z,95246.00
2023-05-04T06:33:55.198Z,95246.00
2023-05-04T06:34:52.881Z,95246.00
2023-05-04T06:35:52.852Z,95246.00
2023-05-04T06:36:52.916Z,95242.00
2023-05-04T06:37:53.325Z,95242.00
2023-05-04T06:38:52.926Z,95240.00
2023-05-04T06:39:53.038Z,95244.00
2023-05-04T06:40:53.074Z,95240.00
2023-05-04T06:41:53.115Z,95238.00
2023-05-04T06:42:53.240Z,95236.00
2023-05-04T06:43:53.119Z,95236.00
2023-05-04T06:44:53.088Z,95238.00
2023-05-04T06:45:53.204Z,95235.00
2023-05-04T06:46:53.158Z,95233.00
2023-05-04T06:47:53.251Z,95231.00
2023-05-04T06:48:53.201Z,95233.00
2023-05-04T06:49:53.438Z,95229.00
2023-05-04T06:50:53.343Z,95229.00
2023-05-04T06:51:53.335Z,95227.00
2023-05-04T06:52:53.393Z,95227.00
2023-05-04T06:53:53.425Z,95225.00
2023-05-04T06:54:53.488Z,95227.00
2023-05-04T06:55:53.548Z,95223.00
2023-05-04T06:56:53.521Z,95223.00
2023-05-04T06:57:53.532Z,95225.00
2023-05-04T06:58:53.570Z,95223.00
2023-05-04T06:59:53.579Z,95223.00
2023-05-04T07:00:53.708Z,95221.00
2023-05-04T07:01:53.787Z,95223.00
2023-05-04T07:02:54.281Z,95221.00
2023-05-04T07:03:53.817Z,95219.00
2023-05-04T07:04:54.730Z,95221.00
2023-05-04T07:05:53.864Z,95221.00
2023-05-04T07:06:53.879Z,95223.00
2023-05-04T07:07:53.884Z,95219.00
2023-05-04T07:08:53.920Z,95217.00
2023-05-04T07:09:53.986Z,95217.00
2023-05-04T07:10:54.076Z,95219.00
2023-05-04T07:11:54.041Z,95215.00
2023-05-04T07:12:54.184Z,95217.00
2023-05-04T07:13:54.129Z,95213.00
2023-05-04T07:14:54.149Z,95211.00
2023-05-04T07:15:54.262Z,95213.00
2023-05-04T07:16:54.296Z,95209.00
2023-05-04T07:17:54.396Z,95209.00
2023-05-04T07:18:54.273Z,95207.00
2023-05-04T07:19:54.397Z,95205.00
2023-05-04T07:21:01.551Z,95203.00
2023-05-04T07:21:55.449Z,95203.00
2023-05-04T07:22:54.399Z,95199.00
2023-05-04T07:23:54.373Z,95197.00
2023-05-04T07:24:54.340Z,95199.00
2023-05-04T07:25:55.248Z,95197.00
2023-05-04T07:26:54.319Z,95199.00
2023-05-04T07:27:54.353Z,95199.00
2023-05-04T07:28:54.322Z,95197.00
2023-05-04T07:29:54.413Z,95197.00
2023-05-04T07:30:54.401Z,95199.00
2023-05-04T07:31:54.482Z,95193.00
2023-05-04T07:32:54.432Z,95191.00
2023-05-04T07:33:54.431Z,95193.00
2023-05-04T07:34:54.428Z,95189.00
2023-05-04T07:35:54.490Z,95191.00
2023-05-04T07:36:54.560Z,95188.00
2023-05-04T07:37:54.885Z,95184.00
2023-05-04T07:38:54.635Z,95186.00
2023-05-04T07:39:55.325Z,95182.00
2023-05-04T07:40:54.663Z,95180.00
2023-05-04T07:41:54.597Z,95178.00
2023-05-04T07:42:54.633Z,95178.00
2023-05-04T07:43:54.638Z,95174.00
2023-05-04T07:44:54.651Z,95174.00
2023-05-04T07:45:54.680Z,95172.00
2023-05-04T07:46:54.708Z,95168.00
2023-05-04T07:47:54.741Z,95170.00
2023-05-04T07:48:54.731Z,95166.00
2023-05-04T07:49:54.746Z,95166.00
2023-05-04T07:50:54.840Z,95166.00
2023-05-04T07:51:54.839Z,95162.00
2023-05-04T07:52:54.845Z,95158.00
2023-05-04T07:53:54.945Z,95158.00
2023-05-04T07:54:54.979Z,95156.00
2023-05-04T07:55:54.979Z,95154.00
2023-05-04T07:56:55.048Z,95152.00
2023-05-04T07:57:55.113Z,95150.00
2023-05-04T07:58:55.258Z,95152.00
2023-05-04T07:59:55.041Z,95142.00
2023-05-04T08:00:55.059Z,95142.00
2023-05-04T08:01:55.071Z,95136.00
2023-05-04T08:02:55.076Z,95136.00
2023-05-04T08:03:55.010Z,95135.00
2023-05-04T08:04:55.018Z,95133.00
2023-05-04T08:05:54.996Z,95131.00
2023-05-04T08:06:55.038Z,95127.00
2023-05-04T08:07:55.030Z,95125.00
2023-05-04T08:08:55.234Z,95125.00
2023-05-04T08:09:55.021Z,95121.00
2023-05-04T08:10:57.744Z,95123.00
2023-05-04T08:11:56.018Z,95123.00
2023-05-04T08:12:55.098Z,95121.00
2023-05-04T08:13:55.008Z,95119.00
2023-05-04T08:14:54.998Z,95119.00
2023-05-04T08:15:55.019Z,95117.00
2023-05-04T08:16:54.984Z,95119.00
2023-05-04T08:17:55.032Z,95119.00
2023-05-04T08:18:54.981Z,95119.00
2023-05-04T08:19:55.826Z,95115.00
2023-05-04T08:20:55.739Z,95119.00
2023-05-04T08:21:54.931Z,95113.00
2023-05-04T08:22:55.260Z,95111.00
2023-05-04T08:23:55.119Z,95113.00
2023-05-04T08:24:55.796Z,95113.00
2023-05-04T08:25:54.919Z,95113.00
2023-05-04T08:27:06.664Z,95109.00
2023-05-04T08:27:56.241Z,95115.00
2023-05-04T08:28:55.742Z,95113.00
2023-05-04T08:29:54.971Z,95115.00
2023-05-04T08:30:54.962Z,95113.00
2023-05-04T08:31:54.937Z,95111.00
2023-05-04T08:32:54.917Z,95113.00
2023-05-04T08:33:54.931Z,95111.00
2023-05-04T08:34:54.865Z,95111.00
2023-05-04T08:35:54.941Z,95111.00
2023-05-04T08:36:57.809Z,95109.00
2023-05-04T08:37:55.283Z,95107.00
2023-05-04T08:38:55.254Z,95109.00
2023-05-04T08:39:55.771Z,95109.00
2023-05-04T08:40:54.855Z,95111.00
2023-05-04T08:41:54.933Z,95109.00
2023-05-04T08:42:54.825Z,95105.00
2023-05-04T08:43:54.837Z,95099.00
2023-05-04T08:44:54.839Z,95105.00
2023-05-04T08:45:54.918Z,95103.00
2023-05-04T08:46:54.860Z,95099.00
2023-05-04T08:47:54.844Z,95097.00
2023-05-04T08:48:55.740Z,95099.00
2023-05-04T08:49:54.834Z,95099.00
2023-05-04T08:50:54.834Z,95097.00
2023-05-04T08:51:54.963Z,95099.00
2023-05-04T08:52:54.793Z,95095.00
2023-05-04T08:53:54.770Z,95093.00
2023-05-04T08:54:54.729Z,95095.00
2023-05-04T08:55:54.728Z,95091.00
2023-05-04T08:56:54.716Z,95095.00
2023-05-04T08:57:54.766Z,95091.00
2023-05-04T08:58:55.378Z,95086.00
2023-05-04T08:59:54.933Z,95089.00
2023-05-04T09:00:54.757Z,95088.00
2023-05-04T09:01:54.764Z,95088.00
2023-05-04T09:02:54.807Z,95086.00
2023-05-04T09:03:54.792Z,95084.00
2023-05-04T09:04:54.663Z,95088.00
2023-05-04T09:05:54.731Z,95082.00
2023-05-04T09:06:54.727Z,95080.00
2023-05-04T09:07:54.808Z,95078.00
2023-05-04T09:08:54.683Z,95076.00
2023-05-04T09:09:55.307Z,95076.00
2023-05-04T09:10:54.620Z,95074.00
2023-05-04T09:11:55.268Z,95072.00
2023-05-04T09:12:54.700Z,95074.00
2023-05-04T09:13:54.695Z,95072.00
2023-05-04T09:14:54.673Z,95068.00
2023-05-04T09:15:54.656Z,95066.00
2023-05-04T09:16:54.617Z,95066.00
2023-05-04T09:17:57.671Z,95060.00
2023-05-04T09:18:54.590Z,95058.00
2023-05-04T09:19:54.658Z,95060.00
2023-05-04T09:20:54.588Z,95058.00
2023-05-04T09:21:54.579Z,95056.00
2023-05-04T09:22:54.579Z,95054.00
2023-05-04T09:23:54.707Z,95050.00
2023-05-04T09:24:54.570Z,95052.00
2023-05-04T09:25:54.534Z,95048.00
2023-05-04T09:26:54.544Z,95048.00
2023-05-04T09:27:54.778Z,95044.00
2023-05-04T09:28:55.256Z,95046.00
2023-05-04T09:29:55.349Z,95044.00
2023-05-04T09:30:54.582Z,95046.00
2023-05-04T09:31:54.491Z,95044.00
2023-05-04T09:32:54.690Z,95044.00
2023-05-04T09:33:54.475Z,95042.00
2023-05-04T09:34:54.508Z,95040.00
2023-05-04T09:35:54.513Z,95038.00
2023-05-04T09:36:55.404Z,95038.00
2023-05-04T09:37:54.454Z,95040.00
2023-05-04T09:38:54.532Z,95036.00
2023-05-04T09:39:54.488Z,95033.00
2023-05-04T09:40:55.288Z,95033.00
2023-05-04T09:41:54.495Z,95031.00
2023-05-04T09:42:54.449Z,95025.00
2023-05-04T09:43:54.402Z,95025.00
2023-05-04T09:44:54.427Z,95027.00
2023-05-04T09:45:54.487Z,95023.00
2023-05-04T09:46:54.427Z,95027.00
2023-05-04T09:47:54.510Z,95019.00
2023-05-04T09:48:54.376Z,95021.00
2023-05-04T09:49:54.401Z,95017.00
2023-05-04T09:50:54.408Z,95021.00
2023-05-04T09:51:54.402Z,95017.00
2023-05-04T09:52:54.374Z,95015.00
2023-05-04T09:53:54.876Z,95017.00
2023-05-04T09:54:54.383Z,95013.00
2023-05-04T09:55:54.330Z,95015.00
2023-05-04T09:56:54.350Z,95013.00
2023-05-04T09:57:54.370Z,95011.00
2023-05-04T09:58:54.339Z,95007.00
2023-05-04T09:59:54.302Z,95009.00
2023-05-04T10:00:54.387Z,95007.00
2023-05-04T10:01:54.339Z,95007.00
2023-05-04T10:02:54.315Z,95009.00
2023-05-04T10:03:55.271Z,95005.00
2023-05-04T10:04:54.300Z,95005.00
2023-05-04T10:05:54.412Z,94999.00
2023-05-04T10:06:54.282Z,94993.00
2023-05-04T10:07:54.404Z,94991.00
2023-05-04T10:08:54.417Z,94991.00
2023-05-04T10:09:55.304Z,94989.00
2023-05-04T10:10:54.445Z,94991.00
2023-05-04T10:11:54.472Z,94991.00
2023-05-04T10:12:54.597Z,94987.00
2023-05-04T10:13:54.560Z,94987.00
2023-05-04T10:14:54.584Z,94984.00
2023-05-04T10:15:54.661Z,94984.00
2023-05-04T10:16:54.624Z,94980.00
2023-05-04T10:17:54.723Z,94976.00
2023-05-04T10:18:55.817Z,94978.00
2023-05-04T10:19:54.785Z,94974.00
2023-05-04T10:20:54.957Z,94972.00
2023-05-04T10:21:54.854Z,94970.00
2023-05-04T10:22:54.881Z,94966.00
2023-05-04T10:23:54.895Z,94968.00
2023-05-04T10:24:55.024Z,94966.00
2023-05-04T10:25:55.027Z,94962.00
2023-05-04T10:26:54.987Z,94962.00
2023-05-04T10:27:55.023Z,94958.00
2023-05-04T10:28:55.107Z,94960.00
2023-05-04T10:29:55.506Z,94956.00
2023-05-04T10:30:55.136Z,94956.00
2023-05-04T10:31:55.227Z,94956.00
2023-05-04T10:32:55.270Z,94956.00
2023-05-04T10:33:55.244Z,94954.00
2023-05-04T10:34:57.245Z,94952.00
2023-05-04T10:35:55.301Z,94954.00
2023-05-04T10:36:55.266Z,94950.00
2023-05-04T10:37:55.285Z,94952.00
2023-05-04T10:38:55.359Z,94948.00
2023-05-04T10:39:55.369Z,94944.00
2023-05-04T10:40:55.428Z,94944.00
2023-05-04T10:41:55.499Z,94940.00
2023-05-04T10:42:55.538Z,94939.00
2023-05-04T10:43:55.661Z,94939.00
2023-05-04T10:44:55.683Z,94935.00
2023-05-04T10:45:55.723Z,94933.00
2023-05-04T10:46:56.790Z,94929.00
2023-05-04T10:47:55.744Z,94933.00
2023-05-04T10:48:55.847Z,94927.00
2023-05-04T10:49:55.811Z,94927.00
2023-05-04T10:50:55.815Z,94921.00
2023-05-04T10:51:55.883Z,94921.00
2023-05-04T10:52:57.578Z,94919.00
2023-05-04T10:53:55.941Z,94917.00
2023-05-04T10:54:55.934Z,94919.00
2023-05-04T10:55:55.987Z,94917.00
2023-05-04T10:56:56.038Z,94919.00
2023-05-04T10:57:56.075Z,94915.00
2023-05-04T10:58:56.022Z,94909.00
2023-05-04T10:59:56.096Z,94905.00
2023-05-04T11:00:56.169Z,94901.00
2023-05-04T11:01:57.112Z,94901.00
2023-05-04T11:02:56.140Z,94903.00
2023-05-04T11:03:56.138Z,94903.00
2023-05-04T11:04:56.151Z,94895.00
2023-05-04T11:05:56.110Z,94895.00
2023-05-04T11:06:56.149Z,94886.00
2023-05-04T11:07:56.140Z,94886.00
2023-05-04T11:08:56.177Z,94886.00
2023-05-04T11:09:56.175Z,94882.00
2023-05-04T11:10:56.212Z,94882.00
2023-05-04T11:11:56.319Z,94874.00
2023-05-04T11:12:56.383Z,94874.00
2023-05-04T11:13:56.407Z,94872.00
2023-05-04T11:14:56.423Z,94874.00
2023-05-04T11:15:56.441Z,94874.00
2023-05-04T11:16:56.512Z,94870.00
2023-05-04T11:17:56.550Z,94868.00
2023-05-04T11:18:56.846Z,94864.00
2023-05-04T11:19:56.623Z,94864.00
2023-05-04T11:20:56.638Z,94866.00
2023-05-04T11:21:56.644Z,94864.00
2023-05-04T11:22:56.669Z,94864.00
2023-05-04T11:23:56.782Z,94866.00
2023-05-04T11:24:56.756Z,94866.00
2023-05-04T11:25:56.760Z,94856.00
2023-05-04T11:26:56.855Z,94860.00
2023-05-04T11:27:56.758Z,94860.00
2023-05-04T11:28:56.786Z,94858.00
2023-05-04T11:29:56.846Z,94860.00
2023-05-04T11:30:56.764Z,94860.00
2023-05-04T11:31:56.880Z,94858.00
2023-05-04T11:32:56.806Z,94860.00
2023-05-04T11:33:56.873Z,94856.00
2023-05-04T11:34:56.898Z,94852.00
2023-05-04T11:35:56.884Z,94856.00
2023-05-04T11:36:57.077Z,94852.00
2023-05-04T11:37:57.104Z,94854.00
2023-05-04T11:38:57.345Z,94852.00
2023-05-04T11:39:57.811Z,94852.00
2023-05-04T11:40:57.272Z,94852.00
2023-05-04T11:41:57.325Z,94848.00
2023-05-04T11:42:57.478Z,94846.00
2023-05-04T11:43:57.833Z,94844.00
2023-05-04T11:44:57.436Z,94846.00